createdAt,value
2017-08-10T00:01:19.636Z,16.00
2017-08-10T00:03:47.671Z,16.00
2017-08-10T00:06:15.695Z,15.90
2017-08-10T00:08:43.719Z,15.90
2017-08-10T00:11:12.560Z,15.80
2017-08-10T00:13:40.580Z,15.80
2017-08-10T00:16:09.512Z,15.80
2017-08-10T00:18:37.556Z,15.80
2017-08-10T00:21:05.584Z,15.80
2017-08-10T00:23:34.548Z,15.90
2017-08-10T00:26:02.576Z,15.90
2017-08-10T00:28:31.608Z,15.90
2017-08-10T00:30:59.639Z,15.80
2017-08-10T00:33:28.680Z,15.80
2017-08-10T00:35:58.691Z,15.90
2017-08-10T00:38:27.695Z,15.90
2017-08-10T00:40:55.711Z,15.90
2017-08-10T00:43:24.739Z,15.90
2017-08-10T00:45:52.775Z,15.90
2017-08-10T00:48:21.808Z,15.90
2017-08-10T00:50:53.483Z,15.90
2017-08-10T00:53:22.447Z,15.90
2017-08-10T00:55:50.492Z,15.90
2017-08-10T00:58:18.519Z,15.90
2017-08-10T01:00:47.311Z,15.70
2017-08-10T01:03:16.099Z,15.60
2017-08-10T01:05:44.156Z,15.60
2017-08-10T01:08:12.948Z,15.50
2017-08-10T01:10:41.919Z,15.50
2017-08-10T01:13:11.851Z,15.50
2017-08-10T01:15:40.771Z,15.50
2017-08-10T01:18:08.783Z,15.50
2017-08-10T01:20:36.807Z,15.50
2017-08-10T01:23:04.831Z,15.50
2017-08-10T01:25:32.857Z,15.60
2017-08-10T01:28:00.895Z,15.70
2017-08-10T01:30:32.519Z,15.70
2017-08-10T01:33:00.551Z,15.70
2017-08-10T01:35:28.563Z,15.60
2017-08-10T01:37:56.583Z,15.60
2017-08-10T01:40:24.623Z,15.60
2017-08-10T01:42:54.603Z,15.70
2017-08-10T01:45:23.527Z,15.60
2017-08-10T01:47:52.452Z,15.60
2017-08-10T01:50:20.479Z,15.70
2017-08-10T01:52:48.499Z,15.70
2017-08-10T01:55:17.551Z,15.70
2017-08-10T01:57:46.326Z,15.70
2017-08-10T02:00:14.359Z,15.70
2017-08-10T02:02:44.295Z,15.70
2017-08-10T02:05:13.307Z,15.60
2017-08-10T02:07:45.166Z,15.60
2017-08-10T02:10:13.954Z,15.60
2017-08-10T02:12:43.963Z,15.60
2017-08-10T02:15:12.966Z,15.70
2017-08-10T02:17:41.759Z,15.50
2017-08-10T02:20:14.638Z,15.50
2017-08-10T02:22:42.654Z,15.50
2017-08-10T02:25:22.518Z,15.50
2017-08-10T02:27:53.271Z,15.40
2017-08-10T02:30:27.995Z,15.40
2017-08-10T02:32:56.022Z,15.30
2017-08-10T02:35:24.039Z,15.30
2017-08-10T02:37:52.070Z,15.20
2017-08-10T02:40:21.005Z,15.10
2017-08-10T02:42:51.010Z,15.10
2017-08-10T02:45:19.042Z,15.10
2017-08-10T02:47:48.074Z,15.10
2017-08-10T02:50:16.098Z,15.00
2017-08-10T02:52:44.150Z,15.00
2017-08-10T02:55:12.178Z,14.90
2017-08-10T02:57:42.218Z,14.90
2017-08-10T03:00:11.025Z,14.90
2017-08-10T03:02:42.034Z,14.80
2017-08-10T03:05:10.066Z,14.90
2017-08-10T03:07:38.090Z,14.80
2017-08-10T03:10:06.878Z,14.80
2017-08-10T03:12:36.691Z,14.80
2017-08-10T03:15:10.418Z,14.80
2017-08-10T03:17:38.469Z,14.70
2017-08-10T03:20:07.266Z,14.80
2017-08-10T03:22:36.046Z,14.80
2017-08-10T03:25:04.093Z,14.80
2017-08-10T03:27:33.085Z,14.80
2017-08-10T03:30:01.106Z,14.80
2017-08-10T03:32:29.161Z,14.80
2017-08-10T03:34:57.197Z,14.80
2017-08-10T03:37:25.221Z,14.80
2017-08-10T03:39:53.242Z,14.80
2017-08-10T03:42:21.269Z,14.80
2017-08-10T03:44:51.217Z,14.70
2017-08-10T03:47:20.137Z,14.70
2017-08-10T03:49:48.196Z,14.70
2017-08-10T03:52:20.054Z,14.70
2017-08-10T03:54:48.849Z,14.80
2017-08-10T03:57:19.617Z,14.70
2017-08-10T03:59:47.641Z,14.70
2017-08-10T04:02:15.669Z,14.80
2017-08-10T04:04:44.706Z,14.80
2017-08-10T04:07:13.501Z,14.80
2017-08-10T04:09:42.289Z,14.80
2017-08-10T04:12:11.100Z,14.70
2017-08-10T04:14:42.505Z,14.70
2017-08-10T04:17:10.541Z,14.70
2017-08-10T04:19:38.561Z,14.80
2017-08-10T04:22:07.493Z,14.80
2017-08-10T04:24:36.426Z,14.70
2017-08-10T04:27:04.445Z,14.70
2017-08-10T04:29:32.481Z,14.80
2017-08-10T04:32:01.473Z,14.80
2017-08-10T04:34:29.500Z,14.80
2017-08-10T04:36:58.528Z,14.90
2017-08-10T04:39:26.557Z,14.90
2017-08-10T04:41:54.584Z,15.00
2017-08-10T04:44:24.373Z,15.00
2017-08-10T04:46:54.440Z,14.90
2017-08-10T04:49:23.388Z,15.00
2017-08-10T04:51:51.416Z,14.90
2017-08-10T04:54:20.493Z,14.90
2017-08-10T04:56:51.325Z,15.00
2017-08-10T04:59:19.358Z,15.00
2017-08-10T05:01:47.400Z,15.00
2017-08-10T05:04:17.325Z,15.10
2017-08-10T05:06:45.361Z,15.20
2017-08-10T05:09:13.388Z,15.20
2017-08-10T05:11:41.416Z,15.20
2017-08-10T05:14:13.128Z,15.30
2017-08-10T05:16:41.141Z,15.40
2017-08-10T05:19:09.164Z,15.50
2017-08-10T05:21:37.214Z,15.50
2017-08-10T05:24:05.248Z,15.60
2017-08-10T05:26:33.265Z,15.60
2017-08-10T05:29:01.317Z,15.60
2017-08-10T05:31:30.323Z,15.60
2017-08-10T05:33:58.341Z,15.70
2017-08-10T05:36:26.383Z,15.70
2017-08-10T05:38:54.408Z,15.70
2017-08-10T05:41:22.440Z,15.60
2017-08-10T05:43:50.488Z,15.60
2017-08-10T05:46:18.504Z,15.60
2017-08-10T05:48:46.527Z,15.70
2017-08-10T05:51:16.392Z,15.90
2017-08-10T05:53:44.424Z,15.80
2017-08-10T05:56:12.436Z,15.90
2017-08-10T05:58:40.480Z,16.00
2017-08-10T06:01:09.444Z,16.10
2017-08-10T06:03:37.464Z,16.20
2017-08-10T06:06:05.500Z,16.20
2017-08-10T06:08:33.523Z,16.20
2017-08-10T06:11:01.548Z,16.30
2017-08-10T06:13:29.572Z,16.30
2017-08-10T06:15:57.592Z,16.20
2017-08-10T06:18:25.612Z,16.20
2017-08-10T06:20:53.652Z,16.20
2017-08-10T06:23:21.680Z,16.20
2017-08-10T06:25:50.468Z,16.30
2017-08-10T06:28:20.404Z,16.20
2017-08-10T06:30:48.428Z,16.30
2017-08-10T06:33:16.456Z,16.40
2017-08-10T06:35:44.510Z,16.40
2017-08-10T06:38:12.524Z,16.50
2017-08-10T06:40:41.460Z,16.50
2017-08-10T06:43:09.488Z,16.50
2017-08-10T06:45:37.560Z,16.60
2017-08-10T06:48:06.612Z,16.80
2017-08-10T06:50:35.685Z,16.70
2017-08-10T06:53:03.712Z,16.70
2017-08-10T06:55:32.712Z,16.80
2017-08-10T06:58:00.764Z,16.90
2017-08-10T07:00:28.780Z,17.10
2017-08-10T07:02:59.489Z,17.60
2017-08-10T07:05:27.531Z,17.50
2017-08-10T07:07:56.536Z,17.90
2017-08-10T07:10:24.555Z,18.20
2017-08-10T07:12:52.607Z,18.10
2017-08-10T07:15:20.628Z,18.10
2017-08-10T07:17:51.803Z,18.30
2017-08-10T07:20:20.791Z,18.80
2017-08-10T07:22:48.803Z,18.90
2017-08-10T07:25:16.832Z,18.90
2017-08-10T07:27:48.487Z,18.80
2017-08-10T07:30:17.420Z,19.00
2017-08-10T07:32:45.451Z,19.20
2017-08-10T07:35:13.475Z,19.40
2017-08-10T07:37:41.527Z,19.40
2017-08-10T07:40:10.480Z,19.40
2017-08-10T07:42:40.495Z,19.40
2017-08-10T07:45:11.755Z,19.40
2017-08-10T07:47:40.728Z,19.50
2017-08-10T07:50:10.756Z,19.80
2017-08-10T07:52:39.776Z,20.10
2017-08-10T07:55:08.543Z,20.50
2017-08-10T07:57:38.554Z,20.50
2017-08-10T08:00:06.599Z,20.80
2017-08-10T08:02:34.615Z,21.20
2017-08-10T08:05:03.403Z,22.10
2017-08-10T08:07:32.204Z,22.40
2017-08-10T08:10:00.223Z,22.40
2017-08-10T08:12:33.008Z,22.40
2017-08-10T08:15:01.023Z,22.30
2017-08-10T08:17:29.967Z,22.30
2017-08-10T08:20:00.003Z,22.40
2017-08-10T08:22:28.007Z,22.30
2017-08-10T08:24:56.019Z,22.20
2017-08-10T08:27:24.055Z,22.20
2017-08-10T08:29:52.072Z,21.90
2017-08-10T08:32:20.083Z,21.90
2017-08-10T08:34:49.034Z,22.10
2017-08-10T08:37:18.015Z,21.80
2017-08-10T08:39:46.031Z,21.60
2017-08-10T08:42:14.081Z,21.30
2017-08-10T08:44:44.788Z,20.90
2017-08-10T08:47:13.779Z,20.90
2017-08-10T08:49:42.775Z,20.80
2017-08-10T08:52:11.767Z,20.60
2017-08-10T08:54:40.170Z,20.50
2017-08-10T08:57:08.140Z,20.40
2017-08-10T08:59:37.822Z,20.00
2017-08-10T09:02:05.851Z,19.90
2017-08-10T09:04:37.439Z,19.80
2017-08-10T09:07:06.455Z,19.80
2017-08-10T09:09:38.651Z,19.90
2017-08-10T09:12:06.691Z,19.80
2017-08-10T09:14:35.655Z,19.80
2017-08-10T09:17:03.671Z,19.60
2017-08-10T09:19:33.450Z,19.60
2017-08-10T09:22:02.436Z,19.60
2017-08-10T09:24:30.434Z,19.40
2017-08-10T09:26:59.225Z,19.10
2017-08-10T09:29:28.018Z,19.00
2017-08-10T09:31:56.046Z,19.00
2017-08-10T09:34:27.806Z,19.00
2017-08-10T09:36:56.802Z,19.00
2017-08-10T09:39:28.267Z,18.90
2017-08-10T09:41:56.281Z,18.80
2017-08-10T09:44:24.302Z,18.50
2017-08-10T09:46:52.330Z,18.30
2017-08-10T09:49:20.346Z,18.30
2017-08-10T09:51:48.362Z,18.40
2017-08-10T09:54:16.390Z,18.20
2017-08-10T09:56:44.406Z,18.10
2017-08-10T09:59:12.418Z,18.10
2017-08-10T10:01:40.454Z,18.00
2017-08-10T10:04:09.466Z,18.20
2017-08-10T10:06:37.505Z,18.30
2017-08-10T10:09:05.545Z,18.30
2017-08-10T10:11:36.241Z,18.30
2017-08-10T10:14:04.266Z,18.20
2017-08-10T10:16:33.214Z,18.00
2017-08-10T10:19:01.245Z,17.90
2017-08-10T10:21:29.262Z,17.80
2017-08-10T10:23:58.270Z,17.80
2017-08-10T10:26:26.314Z,17.90
2017-08-10T10:28:54.337Z,17.90
2017-08-10T10:31:22.381Z,17.90
2017-08-10T10:33:50.417Z,17.90
2017-08-10T10:36:19.422Z,17.90
2017-08-10T10:38:47.449Z,18.00
2017-08-10T10:41:15.469Z,18.00
2017-08-10T10:43:44.262Z,18.20
2017-08-10T10:46:13.973Z,18.20
2017-08-10T10:48:42.771Z,18.20
2017-08-10T10:51:10.794Z,18.20
2017-08-10T10:53:39.833Z,18.20
2017-08-10T10:56:07.869Z,18.20
2017-08-10T10:58:35.902Z,18.10
2017-08-10T11:01:04.853Z,18.00
2017-08-10T11:03:33.653Z,17.90
2017-08-10T11:06:01.685Z,17.90
2017-08-10T11:08:30.705Z,17.90
2017-08-10T11:10:58.733Z,17.90
2017-08-10T11:13:26.786Z,18.00
2017-08-10T11:15:54.797Z,18.00
2017-08-10T11:18:22.825Z,18.10
2017-08-10T11:20:50.849Z,18.30
2017-08-10T11:23:19.662Z,18.50
2017-08-10T11:25:47.689Z,18.50
2017-08-10T11:28:15.716Z,18.60
2017-08-10T11:30:44.697Z,18.80
2017-08-10T11:33:12.736Z,19.10
2017-08-10T11:35:42.545Z,19.50
2017-08-10T11:38:11.565Z,19.50
2017-08-10T11:40:39.601Z,20.00
2017-08-10T11:43:10.988Z,20.50
2017-08-10T11:45:39.017Z,20.70
2017-08-10T11:48:07.054Z,20.80
2017-08-10T11:50:38.860Z,21.20
2017-08-10T11:53:08.657Z,21.40
2017-08-10T11:55:36.693Z,21.40
2017-08-10T11:58:04.761Z,21.40
2017-08-10T12:00:32.781Z,21.40
2017-08-10T12:03:02.793Z,21.60
2017-08-10T12:05:32.632Z,21.20
2017-08-10T12:08:00.680Z,21.20
2017-08-10T12:10:29.476Z,20.80
2017-08-10T12:12:57.505Z,20.80
2017-08-10T12:15:25.544Z,20.90
2017-08-10T12:17:55.505Z,20.80
2017-08-10T12:20:23.568Z,20.60
2017-08-10T12:22:53.604Z,20.40
2017-08-10T12:25:22.609Z,20.50
2017-08-10T12:27:56.697Z,20.20
2017-08-10T12:30:24.713Z,20.20
2017-08-10T12:32:52.741Z,20.10
2017-08-10T12:35:24.604Z,20.10
2017-08-10T12:37:52.637Z,20.10
2017-08-10T12:40:20.649Z,20.20
2017-08-10T12:42:49.485Z,20.40
2017-08-10T12:45:17.512Z,20.30
2017-08-10T12:47:46.332Z,20.50
2017-08-10T12:50:15.316Z,20.50
2017-08-10T12:52:43.369Z,20.60
2017-08-10T12:55:12.164Z,20.60
2017-08-10T12:57:41.171Z,20.60
2017-08-10T13:00:09.217Z,20.40
2017-08-10T13:02:37.241Z,19.80
2017-08-10T13:05:06.388Z,19.40
2017-08-10T13:07:34.412Z,19.20
2017-08-10T13:10:02.465Z,19.20
2017-08-10T13:12:30.500Z,19.40
2017-08-10T13:14:59.300Z,19.50
2017-08-10T13:17:27.344Z,19.50
2017-08-10T13:19:55.410Z,19.50
2017-08-10T13:22:23.436Z,19.30
2017-08-10T13:24:51.464Z,19.20
2017-08-10T13:27:24.103Z,18.80
2017-08-10T13:29:52.140Z,18.80
2017-08-10T13:32:20.176Z,18.70
2017-08-10T13:34:48.996Z,18.50
2017-08-10T13:37:17.044Z,18.50
2017-08-10T13:39:45.849Z,18.40
2017-08-10T13:42:13.904Z,18.40
2017-08-10T13:47:23.664Z,18.40
2017-08-10T13:49:53.364Z,18.50
2017-08-10T13:52:22.156Z,18.50
2017-08-10T13:54:50.952Z,18.50
2017-08-10T13:57:20.680Z,18.60
2017-08-10T13:59:48.708Z,18.60
2017-08-10T14:02:16.756Z,18.50
2017-08-10T14:04:44.792Z,18.40
2017-08-10T14:07:12.807Z,18.30
2017-08-10T14:09:41.835Z,18.30
2017-08-10T14:12:10.632Z,18.20
2017-08-10T14:14:39.579Z,18.20
2017-08-10T14:17:10.212Z,18.20
2017-08-10T14:19:38.228Z,18.30
2017-08-10T14:22:06.280Z,18.30
2017-08-10T14:24:34.312Z,18.30
2017-08-10T14:27:08.815Z,18.20
2017-08-10T14:29:36.879Z,18.10
2017-08-10T14:32:05.911Z,18.20
2017-08-10T14:34:33.931Z,18.20
2017-08-10T14:37:01.991Z,18.20
2017-08-10T14:39:30.027Z,18.10
2017-08-10T14:41:58.055Z,18.00
2017-08-10T14:44:28.209Z,17.90
2017-08-10T14:46:56.220Z,17.90
2017-08-10T14:49:24.249Z,17.90
2017-08-10T14:51:53.548Z,17.90
2017-08-10T14:54:24.803Z,18.00
2017-08-10T14:56:52.843Z,17.90
2017-08-10T14:59:20.859Z,17.90
2017-08-10T15:01:48.895Z,17.90
2017-08-10T15:04:16.943Z,17.90
2017-08-10T15:06:45.974Z,17.90
2017-08-10T15:09:13.991Z,17.90
2017-08-10T15:11:42.043Z,17.80
2017-08-10T15:14:10.991Z,17.80
2017-08-10T15:16:39.019Z,17.80
2017-08-10T15:19:07.059Z,17.80
2017-08-10T15:21:36.739Z,17.80
2017-08-10T15:24:04.765Z,17.80
2017-08-10T15:26:32.791Z,17.70
2017-08-10T15:29:01.768Z,17.50
2017-08-10T15:31:30.759Z,17.40
2017-08-10T15:33:58.802Z,17.20
2017-08-10T15:36:26.823Z,17.10
2017-08-10T15:38:54.851Z,17.00
2017-08-10T15:41:27.563Z,17.00
2017-08-10T15:43:56.367Z,16.90
2017-08-10T15:46:25.330Z,16.90
2017-08-10T15:48:54.354Z,16.90
2017-08-10T15:51:25.463Z,16.80
2017-08-10T15:53:54.390Z,16.70
2017-08-10T15:56:23.183Z,16.40
2017-08-10T15:58:51.290Z,16.40
2017-08-10T16:01:19.310Z,16.30
2017-08-10T16:03:47.354Z,16.20
2017-08-10T16:06:16.350Z,16.20
2017-08-10T16:08:45.350Z,16.20
2017-08-10T16:11:13.375Z,16.10
2017-08-10T16:13:43.295Z,16.10
2017-08-10T16:16:11.330Z,16.00
2017-08-10T16:18:39.363Z,16.00
2017-08-10T16:21:07.390Z,16.00
2017-08-10T16:23:35.426Z,15.90
2017-08-10T16:26:04.399Z,15.90
2017-08-10T16:28:33.388Z,15.90
2017-08-10T16:31:01.418Z,15.90
2017-08-10T16:33:30.454Z,15.90
2017-08-10T16:35:58.475Z,15.90
2017-08-10T16:38:27.414Z,15.90
2017-08-10T16:40:55.434Z,15.70
2017-08-10T16:43:23.450Z,15.60
2017-08-10T16:45:51.474Z,15.30
2017-08-10T16:48:19.494Z,15.20
2017-08-10T16:50:50.847Z,15.00
2017-08-10T16:53:18.850Z,14.90
2017-08-10T16:55:46.882Z,14.70
2017-08-10T16:58:16.902Z,14.60
2017-08-10T17:00:46.897Z,14.50
2017-08-10T17:03:15.898Z,14.50
2017-08-10T17:05:44.894Z,14.30
2017-08-10T17:08:12.918Z,14.30
2017-08-10T17:10:40.938Z,14.30
2017-08-10T17:13:10.954Z,14.20
2017-08-10T17:15:38.969Z,14.20
2017-08-10T17:18:06.978Z,14.10
2017-08-10T17:20:35.994Z,14.00
2017-08-10T17:23:04.010Z,13.90
2017-08-10T17:25:32.946Z,13.80
2017-08-10T17:28:01.970Z,13.80
2017-08-10T17:30:31.746Z,13.80
2017-08-10T17:32:59.762Z,13.80
2017-08-10T17:35:27.790Z,13.80
2017-08-10T17:37:55.813Z,13.80
2017-08-10T17:40:23.822Z,13.80
2017-08-10T17:42:51.861Z,13.80
2017-08-10T17:45:19.882Z,13.80
2017-08-10T17:47:48.858Z,13.80
2017-08-10T17:50:16.877Z,13.80
2017-08-10T17:52:45.813Z,13.80
2017-08-10T17:55:14.813Z,13.80
2017-08-10T17:57:42.857Z,13.80
2017-08-10T18:00:10.922Z,13.80
2017-08-10T18:02:38.945Z,13.70
2017-08-10T18:05:08.773Z,13.80
2017-08-10T18:07:36.838Z,13.80
2017-08-10T18:10:07.553Z,13.80
2017-08-10T18:12:37.565Z,13.80
2017-08-10T18:15:05.596Z,13.80
2017-08-10T18:17:33.645Z,13.80
2017-08-10T18:20:01.677Z,13.80
2017-08-10T18:22:30.473Z,13.80
2017-08-10T18:25:00.277Z,13.80
2017-08-10T18:27:29.097Z,13.90
2017-08-10T18:29:57.153Z,13.80
2017-08-10T18:32:27.833Z,13.80
2017-08-10T18:34:55.877Z,13.80
2017-08-10T18:37:24.821Z,13.80
2017-08-10T18:39:53.801Z,13.80
2017-08-10T18:42:21.833Z,13.80
2017-08-10T18:44:50.761Z,13.80
2017-08-10T18:47:18.789Z,13.80
2017-08-10T18:49:47.748Z,13.80
2017-08-10T18:52:15.773Z,13.80
2017-08-10T18:54:44.793Z,13.90
2017-08-10T18:57:12.821Z,13.90
2017-08-10T18:59:42.792Z,13.90
2017-08-10T19:02:10.808Z,13.90
2017-08-10T19:04:38.859Z,13.90
2017-08-10T19:07:13.272Z,13.90
2017-08-10T19:09:43.201Z,13.80
2017-08-10T19:12:11.241Z,13.90
2017-08-10T19:14:40.516Z,13.80
2017-08-10T19:17:08.520Z,13.80
2017-08-10T19:19:37.312Z,13.80
2017-08-10T19:22:05.364Z,13.80
2017-08-10T19:24:36.092Z,13.70
2017-08-10T19:27:04.120Z,13.70
2017-08-10T19:29:32.150Z,13.70
2017-08-10T19:32:01.949Z,13.70
2017-08-10T19:34:29.968Z,13.60
2017-08-10T19:36:58.009Z,13.70
2017-08-10T19:39:26.804Z,13.70
2017-08-10T19:41:54.844Z,13.70
2017-08-10T19:44:22.987Z,13.70
2017-08-10T19:46:51.025Z,13.70
2017-08-10T19:49:19.052Z,13.60
2017-08-10T19:51:47.080Z,13.60
2017-08-10T19:54:15.112Z,13.60
2017-08-10T19:56:44.800Z,13.50
2017-08-10T19:59:12.838Z,13.50
2017-08-10T20:01:41.791Z,13.60
2017-08-10T20:04:09.808Z,13.70
2017-08-10T20:06:37.836Z,13.60
2017-08-10T20:09:05.872Z,13.70
2017-08-10T20:11:33.932Z,13.70
2017-08-10T20:14:01.972Z,13.70
2017-08-10T20:16:30.020Z,13.70
2017-08-10T20:18:58.967Z,13.70
2017-08-10T20:21:31.356Z,13.70
2017-08-10T20:23:59.384Z,13.70
2017-08-10T20:26:27.420Z,13.70
2017-08-10T20:28:55.460Z,13.60
2017-08-10T20:31:23.531Z,13.60
2017-08-10T20:33:51.532Z,13.60
2017-08-10T20:36:21.524Z,13.60
2017-08-10T20:38:50.316Z,13.60
2017-08-10T20:41:21.011Z,13.60
2017-08-10T20:43:49.035Z,13.60
2017-08-10T20:46:17.075Z,13.70
2017-08-10T20:48:45.103Z,13.70
2017-08-10T20:51:15.059Z,13.70
2017-08-10T20:53:43.092Z,13.70
2017-08-10T20:56:12.123Z,13.70
2017-08-10T20:58:40.151Z,13.70
2017-08-10T21:01:09.191Z,13.70
2017-08-10T21:03:38.003Z,13.70
2017-08-10T21:06:06.051Z,13.60
2017-08-10T21:08:34.843Z,13.70
2017-08-10T21:11:05.571Z,13.70
2017-08-10T21:13:34.549Z,13.70
2017-08-10T21:16:03.547Z,13.70
2017-08-10T21:18:31.583Z,13.70
2017-08-10T21:21:00.603Z,13.70
2017-08-10T21:23:30.623Z,13.70
2017-08-10T21:25:58.663Z,13.70
2017-08-10T21:28:27.707Z,13.70
2017-08-10T21:30:58.431Z,13.70
2017-08-10T21:33:26.457Z,13.60
2017-08-10T21:35:56.507Z,13.70
2017-08-10T21:38:24.538Z,13.70
2017-08-10T21:40:52.559Z,13.70
2017-08-10T21:43:22.347Z,13.70
2017-08-10T21:45:51.343Z,13.70
2017-08-10T21:48:19.363Z,13.70
2017-08-10T21:50:47.383Z,13.70
2017-08-10T21:53:19.043Z,13.70
2017-08-10T21:55:49.055Z,13.70
2017-08-10T21:58:20.214Z,13.70
2017-08-10T22:00:50.998Z,13.60
2017-08-10T22:03:18.986Z,13.60
2017-08-10T22:05:47.030Z,13.60
2017-08-10T22:08:15.047Z,13.60
2017-08-10T22:10:43.078Z,13.70
2017-08-10T22:13:12.127Z,13.70
2017-08-10T22:15:42.830Z,13.70
2017-08-10T22:18:10.858Z,13.70
2017-08-10T22:20:43.111Z,13.70
2017-08-10T22:23:11.147Z,13.60
2017-08-10T22:25:39.171Z,13.60
2017-08-10T22:28:08.239Z,13.60
2017-08-10T22:30:38.946Z,13.50
2017-08-10T22:33:06.967Z,13.50
2017-08-10T22:35:34.998Z,13.50
2017-08-10T22:38:03.794Z,13.50
2017-08-10T22:40:33.575Z,13.50
2017-08-10T22:43:02.602Z,13.40
2017-08-10T22:45:30.626Z,13.50
2017-08-10T22:47:58.654Z,13.50
2017-08-10T22:50:27.638Z,13.50
2017-08-10T22:52:57.434Z,13.50
2017-08-10T22:55:26.238Z,13.40
2017-08-10T22:57:55.222Z,13.40
2017-08-10T23:00:23.242Z,13.40
2017-08-10T23:02:51.265Z,13.40
2017-08-10T23:05:20.282Z,13.40
2017-08-10T23:07:48.293Z,13.40
2017-08-10T23:10:16.315Z,13.40
2017-08-10T23:12:48.950Z,13.40
2017-08-10T23:15:17.879Z,13.40
2017-08-10T23:17:47.794Z,13.40
2017-08-10T23:20:15.843Z,13.40
2017-08-10T23:22:46.562Z,13.40
2017-08-10T23:25:15.555Z,13.40
2017-08-10T23:27:45.478Z,13.40
2017-08-10T23:30:17.318Z,13.40
2017-08-10T23:32:45.366Z,13.40
2017-08-10T23:35:14.374Z,13.50
2017-08-10T23:37:43.378Z,13.40
2017-08-10T23:40:11.406Z,13.50
2017-08-10T23:42:41.374Z,13.50
2017-08-10T23:45:09.402Z,13.50
2017-08-10T23:47:37.470Z,13.50
2017-08-10T23:50:07.423Z,13.50
2017-08-10T23:52:35.441Z,13.50
2017-08-10T23:55:03.498Z,13.50
2017-08-10T23:57:33.385Z,13.50
